createdAt,value
2019-03-11T00:00:37.009Z,16.5
2019-03-11T00:01:27.293Z,16.6
2019-03-11T00:02:16.251Z,16.6
2019-03-11T00:03:06.358Z,16.6
2019-03-11T00:03:57.329Z,16.6
2019-03-11T00:04:47.259Z,16.6
2019-03-11T00:05:37.939Z,16.6
2019-03-11T00:06:27.361Z,16.6
2019-03-11T00:07:17.758Z,16.6
2019-03-11T00:08:07.946Z,16.6
2019-03-11T00:08:57.288Z,16.6
2019-03-11T00:09:47.100Z,16.6
2019-03-11T00:10:37.463Z,16.6
2019-03-11T00:11:27.754Z,16.6
2019-03-11T00:12:18.437Z,16.6
2019-03-11T00:13:08.057Z,16.6
2019-03-11T00:13:58.211Z,16.6
2019-03-11T00:14:48.313Z,16.6
2019-03-11T00:15:38.058Z,16.6
2019-03-11T00:16:27.895Z,16.6
2019-03-11T00:17:17.997Z,16.6
2019-03-11T00:18:08.896Z,16.6
2019-03-11T00:18:58.830Z,16.6
2019-03-11T00:19:48.377Z,16.6
2019-03-11T00:20:38.530Z,16.6
2019-03-11T00:21:28.480Z,16.6
2019-03-11T00:22:18.004Z,16.6
2019-03-11T00:23:09.223Z,16.6
2019-03-11T00:23:59.246Z,16.6
2019-03-11T00:24:49.325Z,16.6
2019-03-11T00:25:39.363Z,16.6
2019-03-11T00:26:27.824Z,16.6
2019-03-11T00:27:18.741Z,16.6
2019-03-11T00:28:09.106Z,16.6
2019-03-11T00:28:58.916Z,16.6
2019-03-11T00:29:52.021Z,16.6
2019-03-11T00:30:38.170Z,16.6
2019-03-11T00:31:28.480Z,16.6
2019-03-11T00:32:18.231Z,16.6
2019-03-11T00:33:08.720Z,16.6
2019-03-11T00:33:59.491Z,16.6
2019-03-11T00:34:48.716Z,16.6
2019-03-11T00:35:38.495Z,16.6
2019-03-11T00:36:29.454Z,16.6
2019-03-11T00:37:19.224Z,16.6
2019-03-11T00:38:09.434Z,16.6
2019-03-11T00:39:00.546Z,16.6
2019-03-11T00:39:49.683Z,16.6
2019-03-11T00:40:39.439Z,16.6
2019-03-11T00:41:29.471Z,16.6
2019-03-11T00:42:19.009Z,16.6
2019-03-11T00:43:09.683Z,16.6
2019-03-11T00:43:59.434Z,16.6
2019-03-11T00:44:49.443Z,16.6
2019-03-11T00:45:39.096Z,16.6
2019-03-11T00:46:29.931Z,16.6
2019-03-11T00:47:19.426Z,16.6
2019-03-11T00:48:09.966Z,16.6
2019-03-11T00:49:00.291Z,16.6
2019-03-11T00:49:50.089Z,16.6
2019-03-11T00:50:40.417Z,16.6
2019-03-11T00:51:30.741Z,16.6
2019-03-11T00:52:20.278Z,16.6
2019-03-11T00:53:10.637Z,16.6
2019-03-11T00:54:00.774Z,16.6
2019-03-11T00:54:50.638Z,16.7
2019-03-11T00:55:40.698Z,16.6
2019-03-11T00:56:31.103Z,16.6
2019-03-11T00:57:20.858Z,16.6
2019-03-11T00:58:11.172Z,16.6
2019-03-11T00:59:01.810Z,16.6
2019-03-11T00:59:51.300Z,16.7
2019-03-11T01:00:41.078Z,16.6
2019-03-11T01:01:31.485Z,16.7
2019-03-11T01:02:21.458Z,16.6
2019-03-11T01:03:11.545Z,16.7
2019-03-11T01:04:01.373Z,16.7
2019-03-11T01:04:51.953Z,16.6
2019-03-11T01:05:40.950Z,16.7
2019-03-11T01:06:32.055Z,16.7
2019-03-11T01:07:21.872Z,16.7
2019-03-11T01:08:12.232Z,16.7
2019-03-11T01:09:01.698Z,16.7
2019-03-11T01:09:52.572Z,16.7
2019-03-11T01:10:42.752Z,16.7
2019-03-11T01:11:31.887Z,16.7
2019-03-11T01:12:21.948Z,16.7
2019-03-11T01:13:12.264Z,16.7
2019-03-11T01:14:17.539Z,16.7
2019-03-11T01:14:51.602Z,16.7
2019-03-11T01:15:42.852Z,16.7
2019-03-11T01:16:32.807Z,16.7
2019-03-11T01:17:22.464Z,16.7
2019-03-11T01:18:13.202Z,16.7
2019-03-11T01:19:02.734Z,16.7
2019-03-11T01:19:53.334Z,16.7
2019-03-11T01:20:42.871Z,16.7
2019-03-11T01:21:33.161Z,16.7
2019-03-11T01:22:22.946Z,16.7
2019-03-11T01:23:12.749Z,16.7
2019-03-11T01:24:03.350Z,16.7
2019-03-11T01:24:52.871Z,16.7
2019-03-11T01:25:43.206Z,16.7
2019-03-11T01:26:33.314Z,16.7
2019-03-11T01:27:22.811Z,16.7
2019-03-11T01:28:12.816Z,16.7
2019-03-11T01:29:02.864Z,16.7
2019-03-11T01:29:53.281Z,16.8
2019-03-11T01:30:43.871Z,16.7
2019-03-11T01:31:36.884Z,16.7
2019-03-11T01:32:23.971Z,16.7
2019-03-11T01:33:14.001Z,16.8
2019-03-11T01:34:03.845Z,16.7
2019-03-11T01:34:54.190Z,16.8
2019-03-11T01:35:43.653Z,16.7
2019-03-11T01:36:34.543Z,16.7
2019-03-11T01:37:24.317Z,16.8
2019-03-11T01:38:14.376Z,16.8
2019-03-11T01:39:03.618Z,16.8
2019-03-11T01:39:54.223Z,16.7
2019-03-11T01:40:44.003Z,16.8
2019-03-11T01:41:34.360Z,16.8
2019-03-11T01:42:24.386Z,16.8
2019-03-11T01:43:14.459Z,16.8
2019-03-11T01:44:04.222Z,16.7
2019-03-11T01:44:55.173Z,16.8
2019-03-11T01:45:43.804Z,16.8
2019-03-11T01:46:35.263Z,16.8
2019-03-11T01:47:25.030Z,16.8
2019-03-11T01:48:15.103Z,16.8
2019-03-11T01:49:04.870Z,16.8
2019-03-11T01:49:55.515Z,16.8
2019-03-11T01:50:44.465Z,16.8
2019-03-11T01:51:34.569Z,16.8
2019-03-11T01:52:25.392Z,16.8
2019-03-11T01:53:15.524Z,16.8
2019-03-11T01:54:05.832Z,16.8
2019-03-11T01:54:55.579Z,16.8
2019-03-11T01:55:45.407Z,16.8
2019-03-11T01:56:35.164Z,16.8
2019-03-11T01:57:25.574Z,16.8
2019-03-11T01:58:15.352Z,16.8
2019-03-11T01:59:05.623Z,16.8
2019-03-11T01:59:55.391Z,16.8
2019-03-11T02:00:46.035Z,16.8
2019-03-11T02:01:36.362Z,16.8
2019-03-11T02:02:25.615Z,16.8
2019-03-11T02:03:15.407Z,16.8
2019-03-11T02:04:06.282Z,16.8
2019-03-11T02:04:56.042Z,16.8
2019-03-11T02:05:46.537Z,16.8
2019-03-11T02:06:36.225Z,16.8
2019-03-11T02:07:26.219Z,16.8
2019-03-11T02:08:16.571Z,16.8
2019-03-11T02:09:06.623Z,16.8
2019-03-11T02:09:56.114Z,16.8
2019-03-11T02:10:46.186Z,16.8
2019-03-11T02:11:36.251Z,16.8
2019-03-11T02:12:26.633Z,16.8
2019-03-11T02:13:16.922Z,16.8
2019-03-11T02:14:07.305Z,16.8
2019-03-11T02:14:56.196Z,16.8
2019-03-11T02:15:47.199Z,16.8
2019-03-11T02:16:36.623Z,16.8
2019-03-11T02:17:26.930Z,16.8
2019-03-11T02:18:17.041Z,16.8
2019-03-11T02:19:07.389Z,16.8
2019-03-11T02:19:56.566Z,16.8
2019-03-11T02:20:47.451Z,16.8
2019-03-11T02:21:51.646Z,16.8
2019-03-11T02:22:27.341Z,16.8
2019-03-11T02:23:17.998Z,16.8
2019-03-11T02:24:07.188Z,16.8
2019-03-11T02:24:57.592Z,16.8
2019-03-11T02:25:47.845Z,16.8
2019-03-11T02:26:37.900Z,16.8
2019-03-11T02:27:27.700Z,16.8
2019-03-11T02:28:18.375Z,16.8
2019-03-11T02:29:07.816Z,16.8
2019-03-11T02:29:57.595Z,16.8
2019-03-11T02:30:47.467Z,16.8
2019-03-11T02:31:38.075Z,16.8
2019-03-11T02:32:31.875Z,16.8
2019-03-11T02:33:18.523Z,16.8
2019-03-11T02:34:08.513Z,16.8
2019-03-11T02:34:58.865Z,16.8
2019-03-11T02:35:47.797Z,16.8
2019-03-11T02:36:38.163Z,16.8
2019-03-11T02:37:28.178Z,16.8
2019-03-11T02:38:18.514Z,16.8
2019-03-11T02:39:09.011Z,16.8
2019-03-11T02:39:58.804Z,16.8
2019-03-11T02:40:48.749Z,16.9
2019-03-11T02:41:38.880Z,16.8
2019-03-11T02:42:29.487Z,16.9
2019-03-11T02:43:18.662Z,16.9
2019-03-11T02:44:09.242Z,16.9
2019-03-11T02:44:59.116Z,16.9
2019-03-11T02:45:49.697Z,16.8
2019-03-11T02:46:39.435Z,16.9
2019-03-11T02:47:28.924Z,16.9
2019-03-11T02:48:19.091Z,16.9
2019-03-11T02:49:08.812Z,16.9
2019-03-11T02:49:59.775Z,16.9
2019-03-11T02:50:50.021Z,16.9
2019-03-11T02:51:39.915Z,16.9
2019-03-11T02:52:29.831Z,16.9
2019-03-11T02:53:19.842Z,16.9
2019-03-11T02:54:10.309Z,16.9
2019-03-11T02:54:59.166Z,16.9
2019-03-11T02:55:54.924Z,16.9
2019-03-11T02:56:40.720Z,16.9
2019-03-11T02:57:30.292Z,16.9
2019-03-11T02:58:20.359Z,16.9
2019-03-11T02:59:10.067Z,16.9
2019-03-11T03:00:01.166Z,16.9
2019-03-11T03:00:50.954Z,16.9
2019-03-11T03:01:40.272Z,16.9
2019-03-11T03:02:30.301Z,16.9
2019-03-11T03:03:20.385Z,16.9
2019-03-11T03:04:10.147Z,16.9
2019-03-11T03:07:40.797Z,16.9
2019-03-11T03:08:31.333Z,16.9
2019-03-11T03:09:21.684Z,16.9
2019-03-11T03:10:11.227Z,16.9
2019-03-11T03:11:00.926Z,16.9
2019-03-11T03:11:51.551Z,16.9
2019-03-11T03:12:40.803Z,16.9
2019-03-11T03:13:31.913Z,16.9
2019-03-11T03:14:21.752Z,16.9
2019-03-11T03:15:11.203Z,16.9
2019-03-11T03:16:01.791Z,16.9
2019-03-11T03:16:52.187Z,16.9
2019-03-11T03:17:41.968Z,16.9
2019-03-11T03:18:32.060Z,16.9
2019-03-11T03:19:22.084Z,16.9
2019-03-11T03:20:11.565Z,16.9
2019-03-11T03:21:01.893Z,16.9
2019-03-11T03:21:52.131Z,16.9
2019-03-11T03:22:41.523Z,16.9
2019-03-11T03:23:31.946Z,16.9
2019-03-11T03:24:22.155Z,16.9
2019-03-11T03:25:12.238Z,16.9
2019-03-11T03:26:02.543Z,16.9
2019-03-11T03:26:52.622Z,16.9
2019-03-11T03:27:43.795Z,16.9
2019-03-11T03:28:32.163Z,16.9
2019-03-11T03:29:21.960Z,16.9
2019-03-11T03:30:12.253Z,16.9
2019-03-11T03:31:01.411Z,16.9
2019-03-11T03:31:53.008Z,16.9
2019-03-11T03:32:43.143Z,16.9
2019-03-11T03:33:33.210Z,16.9
2019-03-11T03:34:22.632Z,16.9
2019-03-11T03:35:12.094Z,16.9
2019-03-11T03:36:02.262Z,16.9
2019-03-11T03:36:53.140Z,16.9
2019-03-11T03:37:43.184Z,16.9
2019-03-11T03:38:35.249Z,16.9
2019-03-11T03:39:23.318Z,16.9
2019-03-11T03:40:13.111Z,16.9
2019-03-11T03:41:03.135Z,16.9
2019-03-11T03:41:53.681Z,16.9
2019-03-11T03:42:44.624Z,16.9
2019-03-11T03:44:24.175Z,16.9
2019-03-11T03:47:43.329Z,16.9
2019-03-11T03:48:35.472Z,16.9
2019-03-11T03:49:24.221Z,16.9
2019-03-11T03:51:54.424Z,16.9
2019-03-11T03:55:14.971Z,16.9
2019-03-11T04:00:14.268Z,16.9
2019-03-11T04:19:31.004Z,17.1
2019-03-11T04:24:27.072Z,17.1
2019-03-11T04:26:56.518Z,17.1
2019-03-11T04:27:46.777Z,17.1
2019-03-11T04:28:36.231Z,17.1
2019-03-11T04:29:27.129Z,17.1
2019-03-11T04:30:16.894Z,17.1
2019-03-11T04:31:07.363Z,17.1
2019-03-11T04:31:57.334Z,17.1
2019-03-11T04:32:46.577Z,17.1
2019-03-11T04:33:37.443Z,17.1
2019-03-11T04:34:27.376Z,17.1
2019-03-11T04:35:17.627Z,17.1
2019-03-11T04:36:07.656Z,17.1
2019-03-11T04:36:56.643Z,17.1
2019-03-11T04:37:47.780Z,17.1
2019-03-11T04:39:27.563Z,17.1
2019-03-11T04:40:17.685Z,17.1
2019-03-11T04:41:08.241Z,17.1
2019-03-11T04:41:57.263Z,17.1
2019-03-11T04:42:47.311Z,17.1
2019-03-11T04:43:38.130Z,17.1
2019-03-11T04:44:27.649Z,17.1
2019-03-11T04:45:18.538Z,17.1
2019-03-11T04:46:08.317Z,17.1
2019-03-11T04:46:58.110Z,17.1
2019-03-11T04:47:48.175Z,17.1
2019-03-11T04:48:38.562Z,17.1
2019-03-11T04:49:28.572Z,17.1
2019-03-11T04:50:19.202Z,17.1
2019-03-11T04:51:08.423Z,17.1
2019-03-11T04:51:58.539Z,17.1
2019-03-11T04:52:47.864Z,17.1
2019-03-11T04:53:38.657Z,17.1
2019-03-11T04:54:28.487Z,17.1
2019-03-11T04:55:18.262Z,17.1
2019-03-11T04:56:08.025Z,17.1
2019-03-11T04:56:58.629Z,17.1
2019-03-11T04:57:48.141Z,17.1
2019-03-11T04:58:39.229Z,17.1
2019-03-11T04:59:29.296Z,17.1
2019-03-11T05:00:19.658Z,17.1
2019-03-11T05:01:08.394Z,17.1
2019-03-11T05:01:59.213Z,17.1
2019-03-11T05:02:49.565Z,17.1
2019-03-11T05:03:39.092Z,17.1
2019-03-11T05:04:28.839Z,17.1
2019-03-11T05:05:19.438Z,17.1
2019-03-11T05:06:09.811Z,17.1
2019-03-11T05:06:59.854Z,17.1
2019-03-11T05:07:49.667Z,17.1
2019-03-11T05:08:40.234Z,17.1
2019-03-11T05:09:29.471Z,17.1
2019-03-11T05:10:21.236Z,17.1
2019-03-11T05:11:09.886Z,17.1
2019-03-11T05:11:59.711Z,17.1
2019-03-11T05:12:50.019Z,17.1
2019-03-11T05:13:40.026Z,17.1
2019-03-11T05:14:30.403Z,17.1
2019-03-11T05:15:20.474Z,17.1
2019-03-11T05:16:10.539Z,17.1
2019-03-11T05:16:59.998Z,17.1
2019-03-11T05:17:53.949Z,17.1
2019-03-11T05:18:40.683Z,17.1
2019-03-11T05:19:30.748Z,17.1
2019-03-11T05:20:20.603Z,17.1
2019-03-11T05:21:11.173Z,17.1
2019-03-11T05:22:01.043Z,17.1
2019-03-11T05:22:51.140Z,17.1
2019-03-11T05:23:41.152Z,17.1
2019-03-11T05:24:30.617Z,17.1
2019-03-11T05:25:20.371Z,17.1
2019-03-11T05:26:11.535Z,17.1
2019-03-11T05:27:01.015Z,17.1
2019-03-11T05:27:51.683Z,17.1
2019-03-11T05:28:40.586Z,17.1
2019-03-11T05:29:31.855Z,17.1
2019-03-11T05:30:20.737Z,17.1
2019-03-11T05:31:11.587Z,17.1
2019-03-11T05:32:01.155Z,17.1
2019-03-11T05:32:51.485Z,17.2
2019-03-11T05:33:41.852Z,17.1
2019-03-11T05:34:32.123Z,17.2
2019-03-11T05:35:22.213Z,17.2
2019-03-11T05:36:11.222Z,17.2
2019-03-11T05:37:02.295Z,17.3
2019-03-11T05:37:52.405Z,17.3
2019-03-11T05:38:42.249Z,17.3
2019-03-11T05:39:31.640Z,17.3
2019-03-11T05:40:22.349Z,17.3
2019-03-11T05:41:14.032Z,17.3
2019-03-11T05:42:02.377Z,17.3
2019-03-11T05:42:52.219Z,17.2
2019-03-11T05:43:42.221Z,17.2
2019-03-11T05:44:32.291Z,17.2
2019-03-11T05:45:22.652Z,17.2
2019-03-11T05:46:15.299Z,17.2
2019-03-11T05:47:02.824Z,17.2
2019-03-11T05:47:52.902Z,17.2
2019-03-11T05:48:42.669Z,17.2
2019-03-11T05:49:32.388Z,17.2
2019-03-11T05:50:22.922Z,17.2
2019-03-11T05:51:13.057Z,17.2
2019-03-11T05:52:02.309Z,17.2
2019-03-11T05:52:52.656Z,17.2
2019-03-11T05:53:42.471Z,17.2
2019-03-11T05:54:32.739Z,17.2
2019-03-11T05:55:22.879Z,17.2
2019-03-11T05:56:13.419Z,17.2
2019-03-11T05:57:04.570Z,17.2
2019-03-11T05:57:53.559Z,17.2
2019-03-11T05:58:43.582Z,17.2
2019-03-11T05:59:33.389Z,17.1
2019-03-11T06:00:23.514Z,17.2
2019-03-11T06:01:13.778Z,17.1
2019-03-11T06:02:03.356Z,17.2
2019-03-11T06:02:52.891Z,17.2
2019-03-11T06:03:43.201Z,17.1
2019-03-11T06:05:39.916Z,17.1
2019-03-11T06:06:30.793Z,17.2
2019-03-11T06:07:20.860Z,17.1
2019-03-11T06:08:10.766Z,17.1
2019-03-11T06:09:00.441Z,17.1
2019-03-11T06:09:51.325Z,17.2
2019-03-11T06:10:41.141Z,17.1
2019-03-11T06:11:30.598Z,17.1
2019-03-11T06:12:21.510Z,17.2
2019-03-11T06:13:11.842Z,17.1
2019-03-11T06:14:01.625Z,17.2
2019-03-11T06:14:51.790Z,17.2
2019-03-11T06:15:41.468Z,17.2
2019-03-11T06:16:31.835Z,17.2
2019-03-11T06:17:21.597Z,17.2
2019-03-11T06:18:11.686Z,17.2
2019-03-11T06:19:02.046Z,17.1
2019-03-11T06:19:51.299Z,17.2
2019-03-11T06:20:42.131Z,17.2
2019-03-11T06:21:32.204Z,17.2
2019-03-11T06:22:22.036Z,17.2
2019-03-11T06:23:12.386Z,17.2
2019-03-11T06:24:02.112Z,17.2
2019-03-11T06:24:52.706Z,17.2
2019-03-11T06:25:42.525Z,17.2
2019-03-11T06:26:32.062Z,17.2
2019-03-11T06:27:23.146Z,17.2
2019-03-11T06:28:11.532Z,17.2
2019-03-11T06:29:02.998Z,17.2
2019-03-11T06:29:52.802Z,17.2
2019-03-11T06:30:42.601Z,17.2
2019-03-11T06:31:32.621Z,17.2
2019-03-11T06:32:22.775Z,17.2
2019-03-11T06:33:13.305Z,17.2
2019-03-11T06:34:02.264Z,16
2019-03-11T06:34:53.487Z,15.4
2019-03-11T06:35:45.407Z,15.3
2019-03-11T06:36:32.993Z,17.2
2019-03-11T06:37:23.034Z,19.3
2019-03-11T06:38:13.125Z,19.9
2019-03-11T06:39:11.407Z,19.5
2019-03-11T06:39:53.520Z,18.4
2019-03-11T06:40:46.425Z,17.7
2019-03-11T06:41:33.622Z,17.2
2019-03-11T06:42:23.137Z,17.1
2019-03-11T06:43:13.255Z,17.2
2019-03-11T06:44:03.349Z,17.5
2019-03-11T06:44:53.622Z,17.7
2019-03-11T06:45:43.951Z,17.6
2019-03-11T06:46:33.702Z,17.6
2019-03-11T06:47:24.400Z,17.6
2019-03-11T06:48:13.854Z,17.5
2019-03-11T06:49:04.230Z,17.4
2019-03-11T06:49:53.662Z,17.3
2019-03-11T06:50:43.997Z,17.1
2019-03-11T06:52:23.169Z,16.9
2019-03-11T06:53:14.732Z,16.8
2019-03-11T06:54:03.554Z,16.7
2019-03-11T06:54:54.321Z,16.6
2019-03-11T06:55:44.659Z,16.6
2019-03-11T06:56:34.454Z,16.8
2019-03-11T06:57:24.229Z,17.1
2019-03-11T06:58:15.167Z,17.6
2019-03-11T06:59:05.199Z,17.9
2019-03-11T06:59:54.729Z,18.1
2019-03-11T07:00:44.801Z,18.2
2019-03-11T07:01:35.061Z,18.3
2019-03-11T07:02:25.411Z,18.4
2019-03-11T07:03:14.912Z,18.5
2019-03-11T07:05:40.203Z,18.9
2019-03-11T07:06:30.244Z,19.1
2019-03-11T07:07:24.949Z,19.3
2019-03-11T07:08:11.146Z,19.5
2019-03-11T07:09:01.500Z,19.8
2019-03-11T07:09:51.288Z,20.1
2019-03-11T07:10:43.886Z,20.4
2019-03-11T07:11:30.888Z,20.7
2019-03-11T07:12:20.969Z,20.9
2019-03-11T07:13:11.458Z,21.1
2019-03-11T07:14:01.338Z,21.3
2019-03-11T07:14:51.688Z,21.4
2019-03-11T07:15:40.875Z,21.6
2019-03-11T07:16:31.815Z,21.8
2019-03-11T07:17:21.672Z,21.9
2019-03-11T07:18:12.220Z,22.2
2019-03-11T07:19:02.218Z,22.4
2019-03-11T07:19:51.445Z,22.8
2019-03-11T07:20:40.415Z,23.1
2019-03-11T07:21:31.920Z,23.4
2019-03-11T07:22:21.991Z,23.7
2019-03-11T07:23:11.688Z,23.9
2019-03-11T07:24:02.595Z,24.2
2019-03-11T07:24:52.370Z,24.5
2019-03-11T07:25:42.423Z,24.8
2019-03-11T07:26:32.207Z,25
2019-03-11T07:27:22.822Z,25.3
2019-03-11T07:28:12.622Z,25.6
2019-03-11T07:29:02.670Z,25.8
2019-03-11T07:29:52.500Z,26
2019-03-11T07:30:42.275Z,26.2
2019-03-11T07:31:32.870Z,26.1
2019-03-11T07:32:22.369Z,25.9
2019-03-11T07:33:12.755Z,25.7
2019-03-11T07:34:02.839Z,25.5
2019-03-11T07:34:52.538Z,25.4
2019-03-11T07:35:43.144Z,25.6
2019-03-11T07:36:33.320Z,25.8
2019-03-11T07:37:24.442Z,26.1
2019-03-11T07:38:13.362Z,26.4
2019-03-11T07:39:03.674Z,26.5
2019-03-11T07:39:53.788Z,26.4
2019-03-11T07:40:43.034Z,26.4
2019-03-11T07:41:32.764Z,26.3
2019-03-11T07:42:23.130Z,26.2
2019-03-11T07:43:13.445Z,26.2
2019-03-11T07:44:03.727Z,26.3
2019-03-11T07:44:53.541Z,26.7
2019-03-11T07:45:44.256Z,27.2
2019-03-11T07:46:33.416Z,27.6
2019-03-11T07:47:23.431Z,28
2019-03-11T07:48:14.074Z,28.3
2019-03-11T07:49:03.880Z,28.6
2019-03-11T07:49:53.643Z,28.8
2019-03-11T07:50:43.978Z,29
2019-03-11T07:51:34.621Z,29.3
2019-03-11T07:52:24.101Z,29.4
2019-03-11T07:53:14.151Z,29.7
2019-03-11T07:54:03.679Z,29.9
2019-03-11T07:54:54.293Z,30.1
2019-03-11T07:55:44.330Z,30.2
2019-03-11T07:56:34.132Z,30.3
2019-03-11T07:57:25.128Z,30.4
2019-03-11T07:58:14.791Z,30.6
2019-03-11T07:59:04.873Z,30.7
2019-03-11T07:59:54.925Z,30.9
2019-03-11T08:00:57.328Z,31
2019-03-11T08:01:33.643Z,31.2
2019-03-11T08:02:25.508Z,31.3
2019-03-11T08:03:14.885Z,31.4
2019-03-11T08:04:04.963Z,31.8
2019-03-11T08:04:55.565Z,32.1
2019-03-11T08:05:45.050Z,32.2
2019-03-11T08:06:35.426Z,32.4
2019-03-11T08:07:28.301Z,32.6
2019-03-11T08:08:15.642Z,32.8
2019-03-11T08:09:05.010Z,32.9
2019-03-11T08:09:54.602Z,33.1
2019-03-11T08:10:45.510Z,33.4
2019-03-11T08:11:35.768Z,33.5
2019-03-11T08:12:25.549Z,33.8
2019-03-11T08:13:16.189Z,34
2019-03-11T08:14:06.222Z,34.2
2019-03-11T08:14:56.301Z,34.4
2019-03-11T08:15:46.079Z,34.6
2019-03-11T08:16:36.445Z,34.8
2019-03-11T08:17:26.185Z,34.9
2019-03-11T08:18:16.042Z,35.1
2019-03-11T08:19:05.797Z,35.3
2019-03-11T08:19:55.816Z,35.4
2019-03-11T08:20:46.184Z,35.6
2019-03-11T08:21:36.006Z,35.8
2019-03-11T08:22:26.325Z,35.9
2019-03-11T08:23:16.379Z,36.1
2019-03-11T08:24:06.731Z,36.4
2019-03-11T08:24:55.989Z,36.6
2019-03-11T08:25:46.644Z,36.8
2019-03-11T08:26:37.133Z,36.9
2019-03-11T08:27:27.006Z,37.1
2019-03-11T08:28:16.728Z,37.3
2019-03-11T08:29:06.822Z,37.6
2019-03-11T08:29:59.298Z,37.8
2019-03-11T08:30:47.501Z,38.1
2019-03-11T08:31:36.668Z,38.3
2019-03-11T08:32:27.003Z,38.5
2019-03-11T08:33:16.562Z,38.7
2019-03-11T08:34:06.924Z,38.8
2019-03-11T08:34:57.473Z,38.9
2019-03-11T08:35:46.983Z,38.8
2019-03-11T08:36:37.093Z,38.7
2019-03-11T08:37:27.107Z,38.8
2019-03-11T08:38:17.438Z,39.1
2019-03-11T08:39:07.498Z,39.5
2019-03-11T08:39:57.274Z,39.9
2019-03-11T08:40:48.493Z,40.3
2019-03-11T08:41:37.395Z,40.3
2019-03-11T08:42:28.000Z,40.1
2019-03-11T08:43:17.270Z,39.9
2019-03-11T08:44:07.365Z,39.9
2019-03-11T08:44:58.508Z,40.2
2019-03-11T08:45:48.551Z,40.6
2019-03-11T08:46:38.033Z,41
2019-03-11T08:47:28.680Z,41.3
2019-03-11T08:48:18.445Z,41.3
2019-03-11T08:49:08.498Z,41.3
2019-03-11T08:49:57.710Z,41.1
2019-03-11T08:50:48.111Z,40.9
2019-03-11T08:51:38.413Z,40.8
2019-03-11T08:52:29.138Z,40.9
2019-03-11T08:53:17.713Z,41.1
2019-03-11T08:54:07.840Z,41.1
2019-03-11T08:54:58.162Z,40.9
2019-03-11T08:55:48.983Z,40.8
2019-03-11T08:56:39.925Z,40.9
2019-03-11T08:57:29.397Z,41.4
2019-03-11T08:58:18.608Z,41.9
2019-03-11T08:59:09.267Z,42.1
2019-03-11T08:59:58.764Z,41.9
2019-03-11T09:00:49.368Z,41.8
2019-03-11T09:01:39.139Z,41.8
2019-03-11T09:02:29.242Z,41.8
2019-03-11T09:03:19.594Z,41.7
2019-03-11T09:04:09.122Z,41.8
2019-03-11T09:04:59.645Z,42
2019-03-11T09:05:49.440Z,42.3
2019-03-11T09:06:40.035Z,42.4
2019-03-11T09:07:29.897Z,42.7
2019-03-11T09:08:19.911Z,43.1
2019-03-11T09:09:10.172Z,43.5
2019-03-11T09:09:59.201Z,43.8
2019-03-11T09:10:50.354Z,43.9
2019-03-11T09:11:40.451Z,44
2019-03-11T09:12:30.352Z,44.1
2019-03-11T09:13:20.332Z,44.2
2019-03-11T09:14:10.413Z,44.4
2019-03-11T09:15:00.820Z,44.6
2019-03-11T09:15:53.742Z,44.7
2019-03-11T09:16:40.602Z,44.6
2019-03-11T09:17:30.919Z,44.8
2019-03-11T09:18:20.719Z,45
2019-03-11T09:19:10.505Z,45.3
2019-03-11T09:20:01.230Z,45.4
2019-03-11T09:20:50.887Z,45.6
2019-03-11T09:21:41.684Z,45.8
2019-03-11T09:22:31.342Z,46
2019-03-11T09:23:21.415Z,46.2
2019-03-11T09:24:23.160Z,46.3
2019-03-11T09:25:01.517Z,46.2
2019-03-11T09:25:51.502Z,46.1
2019-03-11T09:26:41.601Z,46.2
2019-03-11T09:27:31.654Z,46.4
2019-03-11T09:28:21.980Z,46.7
2019-03-11T09:29:11.816Z,46.9
2019-03-11T09:30:01.942Z,47.1
2019-03-11T09:30:51.898Z,47.1
2019-03-11T09:31:42.646Z,47.1
2019-03-11T09:32:31.809Z,46.9
2019-03-11T09:33:22.117Z,46.9
2019-03-11T09:34:11.858Z,46.9
2019-03-11T09:35:01.946Z,47.1
2019-03-11T09:35:51.489Z,47.1
2019-03-11T09:36:41.766Z,47.1
2019-03-11T09:37:31.821Z,46.9
2019-03-11T09:38:21.966Z,46.7
2019-03-11T09:39:12.231Z,46.4
2019-03-11T09:40:05.494Z,46.2
2019-03-11T09:40:52.094Z,46.1
2019-03-11T09:41:42.426Z,46
2019-03-11T09:42:32.846Z,45.9
2019-03-11T09:43:22.815Z,45.8
2019-03-11T09:44:12.581Z,45.7
2019-03-11T09:45:02.773Z,45.6
2019-03-11T09:45:53.721Z,45.5
2019-03-11T09:46:42.215Z,45.4
2019-03-11T09:47:32.657Z,45.4
2019-03-11T09:48:22.903Z,45.4
2019-03-11T09:49:12.753Z,45.5
2019-03-11T09:50:03.020Z,45.7
2019-03-11T09:50:53.106Z,45.8
2019-03-11T09:51:42.918Z,45.8
2019-03-11T09:52:33.243Z,45.7
2019-03-11T09:53:22.983Z,45.6
2019-03-11T09:54:13.593Z,45.5
2019-03-11T09:55:02.864Z,45.4
2019-03-11T09:55:53.172Z,45.4
2019-03-11T09:56:48.852Z,45.4
2019-03-11T09:57:33.580Z,45.3
2019-03-11T09:58:23.598Z,45.3
2019-03-11T09:59:13.402Z,45.3
2019-03-11T10:00:03.652Z,45.2
2019-03-11T10:00:54.100Z,45.1
2019-03-11T10:01:44.130Z,45
2019-03-11T10:02:34.192Z,45
2019-03-11T10:03:24.020Z,44.9
2019-03-11T10:04:14.059Z,44.9
2019-03-11T10:06:40.907Z,44.8
2019-03-11T10:07:31.252Z,44.6
2019-03-11T10:08:21.362Z,44.6
2019-03-11T10:09:10.554Z,44.5
2019-03-11T10:10:01.383Z,44.4
2019-03-11T10:10:51.349Z,44.3
2019-03-11T10:11:41.624Z,44.3
2019-03-11T10:12:31.324Z,44.2
2019-03-11T10:13:21.724Z,44.1
2019-03-11T10:14:11.514Z,44
2019-03-11T10:15:01.327Z,43.9
2019-03-11T10:15:51.611Z,43.8
2019-03-11T10:16:41.926Z,43.8
2019-03-11T10:17:31.721Z,43.6
2019-03-11T10:18:22.066Z,43.6
2019-03-11T10:19:11.886Z,43.5
2019-03-11T10:20:01.860Z,43.4
2019-03-11T10:20:51.959Z,43.4
2019-03-11T10:21:41.716Z,43.4
2019-03-11T10:22:32.111Z,43.3
2019-03-11T10:23:34.045Z,43.1
2019-03-11T10:24:11.927Z,42.3
2019-03-11T10:25:02.808Z,41.6
2019-03-11T10:25:52.334Z,40.6
2019-03-11T10:26:42.176Z,39.8
2019-03-11T10:27:32.717Z,39.4
2019-03-11T10:28:22.538Z,39.1
2019-03-11T10:29:12.884Z,38.8
2019-03-11T10:30:02.346Z,38.4
2019-03-11T10:30:52.936Z,38.1
2019-03-11T10:31:43.040Z,37.9
2019-03-11T10:32:32.846Z,37.6
2019-03-11T10:33:23.280Z,39.1
2019-03-11T10:34:12.923Z,41.9
2019-03-11T10:35:03.003Z,42.2
2019-03-11T10:35:53.319Z,45.2
2019-03-11T10:36:43.371Z,45.8
2019-03-11T10:37:33.443Z,46.3
2019-03-11T10:38:22.508Z,46.3
2019-03-11T10:39:12.774Z,46.1
2019-03-11T10:40:03.343Z,45.9
2019-03-11T10:40:52.889Z,45.9
2019-03-11T10:41:42.952Z,45.9
2019-03-11T10:42:32.973Z,46.1
2019-03-11T10:43:23.294Z,46.1
2019-03-11T10:44:13.869Z,46.1
2019-03-11T10:45:02.502Z,45.9
2019-03-11T10:45:53.390Z,45.8
2019-03-11T10:46:46.456Z,45.6
2019-03-11T10:47:33.244Z,45.5
2019-03-11T10:48:23.656Z,45.4
2019-03-11T10:49:14.216Z,45.2
2019-03-11T10:50:03.906Z,45.1
2019-03-11T10:50:55.036Z,45.1
2019-03-11T10:51:44.102Z,45
2019-03-11T10:52:34.479Z,44.9
2019-03-11T10:53:23.698Z,44.9
2019-03-11T10:54:13.781Z,44.8
2019-03-11T10:55:03.936Z,44.8
2019-03-11T10:55:54.686Z,44.6
2019-03-11T10:56:44.566Z,44.5
2019-03-11T10:57:34.578Z,44.4
2019-03-11T10:58:24.028Z,44.4
2019-03-11T10:59:14.406Z,44.3
2019-03-11T11:00:04.674Z,44.3
2019-03-11T11:00:54.831Z,44.1
2019-03-11T11:01:44.585Z,44.1
2019-03-11T11:02:34.638Z,44.1
2019-03-11T11:03:24.683Z,44
2019-03-11T11:04:15.314Z,43.9
2019-03-11T11:05:05.012Z,43.9
2019-03-11T11:05:55.470Z,43.8
2019-03-11T11:06:44.945Z,43.8
2019-03-11T11:07:34.985Z,43.7
2019-03-11T11:08:25.051Z,43.6
2019-03-11T11:09:14.855Z,43.5
2019-03-11T11:10:05.620Z,43.4
2019-03-11T11:10:55.558Z,43.3
2019-03-11T11:11:45.355Z,43.3
2019-03-11T11:12:35.640Z,43.2
2019-03-11T11:13:25.117Z,42.8
2019-03-11T11:14:16.046Z,42
2019-03-11T11:15:05.625Z,41.2
2019-03-11T11:15:56.162Z,40.4
2019-03-11T11:16:48.352Z,39.8
2019-03-11T11:17:35.227Z,39.3
2019-03-11T11:18:25.082Z,39
2019-03-11T11:19:14.782Z,38.8
2019-03-11T11:20:08.274Z,38.5
2019-03-11T11:20:55.388Z,38.3
2019-03-11T11:21:46.072Z,38
2019-03-11T11:22:36.362Z,37.8
2019-03-11T11:23:26.407Z,37.6
2019-03-11T11:24:16.728Z,37.3
2019-03-11T11:25:06.247Z,37.1
2019-03-11T11:25:56.401Z,36.9
2019-03-11T11:26:45.836Z,36.8
2019-03-11T11:27:39.449Z,36.6
2019-03-11T11:28:26.011Z,36.4
2019-03-11T11:29:16.311Z,36.3
2019-03-11T11:30:06.916Z,36.1
2019-03-11T11:30:55.860Z,35.9
2019-03-11T11:31:46.745Z,35.8
2019-03-11T11:32:37.359Z,35.6
2019-03-11T11:33:26.879Z,35.4
2019-03-11T11:34:16.956Z,35.3
2019-03-11T11:35:07.019Z,35.3
2019-03-11T11:35:57.098Z,35.1
2019-03-11T11:36:47.655Z,35
2019-03-11T11:37:37.716Z,34.9
2019-03-11T11:38:27.255Z,34.8
2019-03-11T11:39:17.626Z,34.6
2019-03-11T11:40:07.630Z,34.6
2019-03-11T11:40:57.672Z,34.4
2019-03-11T11:41:47.783Z,34.4
2019-03-11T11:42:37.546Z,34.3
2019-03-11T11:43:27.871Z,34.2
2019-03-11T11:44:17.683Z,34.1
2019-03-11T11:45:07.168Z,38.4
2019-03-11T11:45:57.495Z,40.8
2019-03-11T11:46:46.998Z,40.9
2019-03-11T11:47:38.437Z,41.8
2019-03-11T11:48:28.243Z,42.1
2019-03-11T11:49:17.807Z,41.7
2019-03-11T11:50:07.507Z,40.8
2019-03-11T11:50:58.435Z,39.9
2019-03-11T11:51:48.212Z,39.3